Time;durP1;ratioP1;P1;durP2;ratioP2;P2;SDS_P1;SDS_P2;PMS_P1;PMS_P2;Temp;Humidity;BMP_temperature;BMP_pressure;BME280_temperature;BME280_humidity;BME280_pressure;Samples;Min_cycle;Max_cycle;Signal;HPM_P1;HPM_P2
2022/09/03 00:01:28;;;;;;;2.20;1.63;;;;;;;18.22;57.31;98244.69;4960044;28;104172;-68
2022/09/03 00:03:59;;;;;;;2.38;1.70;;;;;;;18.52;56.41;98242.19;4970024;28;103116;-67
2022/09/03 00:06:35;;;;;;;1.70;1.23;;;;;;;18.81;55.69;98243.38;4969629;28;102715;-67
2022/09/03 00:09:09;;;;;;;2.95;1.50;;;;;;;18.84;55.55;98235.84;4963117;28;102622;-67
2022/09/03 00:11:46;;;;;;;2.95;1.60;;;;;;;18.77;55.76;98240.25;4966393;28;104266;-67
2022/09/03 00:14:20;;;;;;;3.30;1.80;;;;;;;18.36;57.37;98238.66;4958707;28;103196;-67
2022/09/03 00:16:52;;;;;;;2.92;1.63;;;;;;;18.34;57.17;98238.00;4968601;28;102749;-67
2022/09/03 00:19:26;;;;;;;2.72;1.60;;;;;;;18.18;58.04;98232.69;4950228;28;102855;-67
2022/09/03 00:21:59;;;;;;;3.50;1.50;;;;;;;18.28;57.69;98234.16;4944228;28;103825;-67
2022/09/03 00:24:34;;;;;;;1.30;1.20;;;;;;;18.62;56.65;98227.75;4967346;28;103307;-67
2022/09/03 00:27:11;;;;;;;1.90;1.30;;;;;;;18.96;55.80;98233.63;4964693;28;102668;-67
2022/09/03 00:29:46;;;;;;;1.65;1.20;;;;;;;19.10;55.37;98231.06;4966418;28;102666;-67
2022/09/03 00:32:19;;;;;;;1.70;1.20;;;;;;;19.30;55.11;98233.28;4963426;28;103654;-67
2022/09/03 00:34:51;;;;;;;1.70;1.20;;;;;;;19.11;56.00;98232.69;4964644;28;103487;-67
2022/09/03 00:37:21;;;;;;;2.17;1.17;;;;;;;19.09;56.32;98237.41;4964096;28;102915;-68
2022/09/03 00:39:50;;;;;;;2.03;1.33;;;;;;;19.09;56.00;98228.53;4965614;28;102953;-67
2022/09/03 00:42:31;;;;;;;2.95;1.50;;;;;;;19.00;56.47;98241.13;4960546;28;104120;-67
2022/09/03 00:45:16;;;;;;;1.83;1.40;;;;;;;19.01;56.14;98236.63;4964584;28;103182;-67
2022/09/03 00:47:58;;;;;;;1.98;1.20;;;;;;;19.22;55.59;98228.81;4960822;28;102877;-67
2022/09/03 00:50:37;;;;;;;3.67;1.42;;;;;;;18.84;56.06;98225.16;4964376;28;103815;-67
2022/09/03 00:53:16;;;;;;;2.90;1.55;;;;;;;18.58;56.96;98226.44;4963033;28;103274;-67
2022/09/03 00:55:57;;;;;;;2.70;1.40;;;;;;;18.61;57.46;98229.59;4964319;28;102968;-67
2022/09/03 00:58:51;;;;;;;0.90;0.90;;;;;;;19.16;55.68;98217.97;4944570;28;102798;-67
2022/09/03 01:01:25;;;;;;;1.10;0.95;;;;;;;19.45;55.05;98228.88;4960233;28;103388;-67
2022/09/03 01:04:05;;;;;;;1.17;1.08;;;;;;;19.61;55.17;98234.13;4960885;28;103364;-67
2022/09/03 01:06:47;;;;;;;1.83;1.30;;;;;;;19.68;54.74;98224.34;4951057;28;104139;-66
2022/09/03 01:09:38;;;;;;;1.40;1.10;;;;;;;19.56;55.86;98231.94;4960955;28;103038;-67
2022/09/03 01:12:14;;;;;;;1.10;1.00;;;;;;;19.66;54.88;98226.38;4962191;28;102947;-67
2022/09/03 01:14:57;;;;;;;2.33;1.33;;;;;;;19.55;55.09;98237.50;4962047;28;104274;-67
2022/09/03 01:17:36;;;;;;;1.30;1.20;;;;;;;19.60;54.61;98227.06;4965077;28;103286;-67
2022/09/03 01:20:17;;;;;;;1.47;1.37;;;;;;;19.27;55.09;98236.31;4966479;28;102952;-67
2022/09/03 01:23:07;;;;;;;2.17;1.60;;;;;;;18.69;56.88;98232.25;4962572;28;104316;-67
2022/09/03 01:25:53;;;;;;;2.60;1.40;;;;;;;18.89;56.51;98238.03;4946812;28;103262;-67
2022/09/03 01:28:44;;;;;;;1.83;1.50;;;;;;;18.37;57.71;98232.31;4946355;28;104158;-68
2022/09/03 01:31:25;;;;;;;2.07;1.30;;;;;;;18.75;56.85;98228.88;4942685;28;102842;-67
2022/09/03 01:34:05;;;;;;;1.52;1.38;;;;;;;19.03;55.76;98224.72;4964601;28;104137;-68
2022/09/03 01:36:43;;;;;;;3.80;1.40;;;;;;;19.23;55.68;98225.13;4962422;28;103327;-67
2022/09/03 01:39:17;;;;;;;2.40;1.40;;;;;;;18.67;56.17;98231.56;4963990;28;103103;-67
2022/09/03 01:42:14;;;;;;;1.40;1.30;;;;;;;18.86;56.69;98227.66;4964019;28;102812;-67
2022/09/03 01:45:06;;;;;;;1.20;1.10;;;;;;;19.16;56.08;98226.00;4963858;28;104948;-67
2022/09/03 01:47:48;;;;;;;1.40;0.93;;;;;;;19.42;55.23;98231.91;4962410;28;103255;-67
2022/09/03 01:50:26;;;;;;;1.40;1.13;;;;;;;19.64;54.96;98228.41;4966501;28;103039;-67
2022/09/03 01:53:07;;;;;;;1.10;1.00;;;;;;;19.75;55.20;98241.38;4970313;28;103310;-67
2022/09/03 01:55:47;;;;;;;2.15;1.30;;;;;;;19.45;56.89;98240.41;4966920;28;102711;-68
2022/09/03 01:58:21;;;;;;;2.10;1.73;;;;;;;18.91;60.54;98247.56;4967500;28;104571;-67
2022/09/03 02:00:57;;;;;;;2.13;1.40;;;;;;;18.43;60.45;98240.50;4967526;28;103258;-67
2022/09/03 02:03:33;;;;;;;2.83;1.42;;;;;;;18.20;59.75;98242.19;4963422;28;102756;-68
2022/09/03 02:06:08;;;;;;;2.30;1.40;;;;;;;18.12;60.42;98246.72;4965429;28;103739;-67
2022/09/03 02:08:36;;;;;;;2.53;1.40;;;;;;;18.18;60.27;98241.53;4959668;28;103274;-67
2022/09/03 02:11:07;;;;;;;2.50;1.20;;;;;;;18.34;59.75;98238.00;4966392;28;103369;-67
2022/09/03 02:13:39;;;;;;;2.03;1.38;;;;;;;18.61;59.14;98240.28;4968686;28;103283;-67
2022/09/03 02:16:13;;;;;;;2.47;1.80;;;;;;;18.68;58.16;98230.56;4962818;28;103359;-68
2022/09/03 02:18:44;;;;;;;2.58;1.70;;;;;;;18.65;58.75;98235.44;4952372;28;102996;-68
2022/09/03 02:21:16;;;;;;;1.10;1.00;;;;;;;19.11;57.07;98247.97;4960792;28;103215;-68
2022/09/03 02:23:48;;;;;;;1.30;1.20;;;;;;;19.41;56.00;98251.66;4965863;28;103077;-67
2022/09/03 02:26:20;;;;;;;1.67;1.47;;;;;;;19.49;56.37;98248.94;4966018;28;102933;-67
2022/09/03 02:28:49;;;;;;;2.40;1.55;;;;;;;19.27;56.80;98253.22;4963164;28;103382;-67
2022/09/03 02:31:19;;;;;;;1.98;1.33;;;;;;;19.08;57.40;98259.00;4966935;28;103431;-68
2022/09/03 02:33:48;;;;;;;2.10;1.48;;;;;;;18.55;58.29;98264.22;4965506;28;102927;-67
2022/09/03 02:36:20;;;;;;;3.37;1.50;;;;;;;18.93;57.21;98261.59;4964442;28;102988;-67
2022/09/03 02:38:52;;;;;;;1.52;1.40;;;;;;;18.80;57.92;98255.97;4964308;28;103125;-68
2022/09/03 02:41:21;;;;;;;2.13;1.67;;;;;;;18.71;58.40;98251.63;4962299;28;103561;-67
2022/09/03 02:43:54;;;;;;;1.63;1.53;;;;;;;19.17;57.37;98241.06;4963743;28;102967;-68
2022/09/03 02:46:29;;;;;;;3.17;2.20;;;;;;;19.35;56.83;98244.28;4948172;28;103025;-67
2022/09/03 02:48:57;;;;;;;1.90;1.57;;;;;;;19.34;56.87;98237.28;4964388;28;103185;-68
2022/09/03 02:51:25;;;;;;;2.93;2.20;;;;;;;19.30;57.00;98234.13;4963158;28;103357;-67
2022/09/03 02:53:53;;;;;;;2.35;1.95;;;;;;;18.95;57.65;98238.16;4949642;28;102850;-67
2022/09/03 02:56:26;;;;;;;4.33;1.60;;;;;;;18.72;58.24;98231.06;4965891;28;103341;-67
2022/09/03 02:58:55;;;;;;;2.83;1.65;;;;;;;18.15;59.70;98241.88;4965105;28;105718;-67
2022/09/03 03:01:25;;;;;;;3.45;1.48;;;;;;;18.27;59.96;98237.03;4968427;28;103197;-67
2022/09/03 03:03:53;;;;;;;4.40;1.80;;;;;;;18.13;59.95;98238.56;4965973;28;102689;-67
2022/09/03 03:06:22;;;;;;;2.90;1.40;;;;;;;18.32;59.69;98245.38;4969718;28;102754;-67
2022/09/03 03:08:51;;;;;;;2.30;1.40;;;;;;;18.46;59.52;98250.00;4970798;28;103008;-68
2022/09/03 03:11:20;;;;;;;2.03;1.40;;;;;;;18.88;58.38;98244.38;4966049;28;103194;-67
2022/09/03 03:13:48;;;;;;;1.83;1.30;;;;;;;19.09;57.75;98232.06;4963878;28;103884;-67
2022/09/03 03:16:16;;;;;;;1.10;0.90;;;;;;;19.27;57.32;98247.03;4966465;28;103545;-67
2022/09/03 03:18:46;;;;;;;1.10;1.00;;;;;;;19.36;57.49;98243.28;4969559;28;104464;-67
2022/09/03 03:21:15;;;;;;;2.45;1.30;;;;;;;19.30;58.83;98252.03;4962068;28;103187;-67
2022/09/03 03:23:43;;;;;;;3.28;1.58;;;;;;;19.21;59.76;98239.69;4961572;28;102991;-68
2022/09/03 03:26:14;;;;;;;1.60;1.45;;;;;;;19.20;59.55;98252.25;4965531;28;104398;-67
2022/09/03 03:28:42;;;;;;;3.67;1.40;;;;;;;19.27;59.02;98257.72;4948067;28;103287;-67
2022/09/03 03:31:14;;;;;;;1.13;1.02;;;;;;;19.40;58.30;98252.66;4964395;28;103195;-67
2022/09/03 03:33:43;;;;;;;1.20;0.90;;;;;;;19.45;58.01;98255.66;4964854;28;103013;-67
2022/09/03 03:36:15;;;;;;;1.33;1.08;;;;;;;19.46;58.53;98257.31;4965394;28;103166;-67
2022/09/03 03:38:46;;;;;;;1.77;1.38;;;;;;;19.39;58.77;98251.00;4961982;28;103283;-67
2022/09/03 03:41:17;;;;;;;4.03;1.67;;;;;;;18.82;61.52;98253.09;4966210;28;103208;-67
2022/09/03 03:43:45;;;;;;;1.98;1.70;;;;;;;18.69;62.03;98263.53;4960570;28;102777;-67
2022/09/03 03:46:14;;;;;;;2.28;1.58;;;;;;;18.95;60.93;98254.22;4964245;28;103009;-67
2022/09/03 03:48:42;;;;;;;1.67;1.40;;;;;;;18.94;60.89;98252.56;4962398;28;104418;-67
2022/09/03 03:51:14;;;;;;;1.80;1.50;;;;;;;19.02;60.45;98257.03;4964661;28;104758;-67
2022/09/03 03:53:42;;;;;;;1.53;1.43;;;;;;;19.10;60.62;98257.84;4965510;28;103523;-67
2022/09/03 03:56:13;;;;;;;1.33;1.23;;;;;;;19.09;60.25;98261.50;4945773;28;102859;-67
2022/09/03 03:58:43;;;;;;;1.35;1.20;;;;;;;19.23;59.69;98254.56;4966602;28;103260;-67
2022/09/03 04:01:13;;;;;;;1.75;1.23;;;;;;;19.28;59.17;98254.06;4947661;28;103912;-67
2022/09/03 04:03:42;;;;;;;1.58;1.48;;;;;;;19.20;60.23;98259.47;4963311;28;102734;-67
2022/09/03 04:06:12;;;;;;;3.15;1.60;;;;;;;19.15;60.73;98261.81;4948790;28;102799;-67
2022/09/03 04:08:43;;;;;;;1.30;1.20;;;;;;;19.24;60.29;98260.75;4947951;28;104195;-67
2022/09/03 04:11:15;;;;;;;1.98;1.50;;;;;;;19.19;60.90;98260.47;4965465;28;103482;-67
2022/09/03 04:13:45;;;;;;;2.75;1.60;;;;;;;18.31;63.78;98265.06;4960231;28;102743;-67
2022/09/03 04:16:18;;;;;;;2.45;1.88;;;;;;;17.40;67.08;98264.38;4963121;28;104433;-67
2022/09/03 04:18:49;;;;;;;2.63;1.65;;;;;;;17.47;67.08;98253.84;4966543;28;103753;-67
2022/09/03 04:21:19;;;;;;;2.97;1.90;;;;;;;17.89;65.03;98255.44;4960877;28;103205;-67
2022/09/03 04:23:50;;;;;;;1.80;1.40;;;;;;;18.39;63.39;98259.72;4963439;28;102867;-67
2022/09/03 04:26:21;;;;;;;2.17;1.48;;;;;;;18.74;61.79;98262.00;4964167;28;104351;-67
2022/09/03 04:28:50;;;;;;;1.80;1.47;;;;;;;18.74;61.95;98250.47;4964842;28;103367;-67
2022/09/03 04:31:19;;;;;;;2.55;1.52;;;;;;;18.34;63.24;98259.38;4964371;28;103429;-69
2022/09/03 04:33:48;;;;;;;3.65;1.60;;;;;;;18.05;63.92;98253.75;4965411;28;102694;-70
2022/09/03 04:36:18;;;;;;;2.65;1.75;;;;;;;18.46;63.18;98264.22;4964352;28;102817;-69
2022/09/03 04:38:48;;;;;;;1.88;1.55;;;;;;;18.67;61.50;98263.69;4963943;28;103323;-70
2022/09/03 04:41:19;;;;;;;2.25;1.88;;;;;;;17.88;64.69;98264.44;4964163;28;103318;-68
2022/09/03 04:43:48;;;;;;;1.90;1.70;;;;;;;18.23;66.87;98267.75;4965902;28;102815;-68
2022/09/03 04:46:19;;;;;;;3.63;1.60;;;;;;;17.91;65.07;98266.78;4964492;28;104491;-68
2022/09/03 04:48:51;;;;;;;2.95;2.00;;;;;;;17.71;66.59;98268.09;4965723;28;103319;-69
2022/09/03 04:51:22;;;;;;;3.23;1.70;;;;;;;17.53;66.73;98264.72;4966307;28;104635;-69
2022/09/03 04:53:55;;;;;;;3.47;1.70;;;;;;;17.37;67.40;98267.38;4967234;28;102727;-69
2022/09/03 04:56:27;;;;;;;1.75;1.55;;;;;;;17.60;66.76;98259.59;4965773;28;102734;-69
2022/09/03 04:58:56;;;;;;;3.20;1.63;;;;;;;17.75;66.04;98269.44;4964405;28;104115;-69
2022/09/03 05:01:26;;;;;;;1.88;1.70;;;;;;;18.02;65.41;98264.78;4968417;28;103234;-69
2022/09/03 05:03:56;;;;;;;2.65;1.55;;;;;;;18.29;64.34;98269.75;4949072;28;102924;-69
2022/09/03 05:06:25;;;;;;;2.00;1.67;;;;;;;17.92;65.63;98268.47;4964058;28;102679;-65
2022/09/03 05:08:55;;;;;;;2.40;2.00;;;;;;;18.09;65.15;98271.13;4966340;28;103203;-65
2022/09/03 05:11:25;;;;;;;2.23;1.80;;;;;;;18.45;64.36;98265.22;4947063;28;103422;-65
2022/09/03 05:13:55;;;;;;;2.60;2.08;;;;;;;18.41;64.45;98271.09;4963667;28;102764;-65
2022/09/03 05:16:24;;;;;;;3.47;1.80;;;;;;;18.06;65.82;98266.94;4959101;28;103185;-65
2022/09/03 05:18:57;;;;;;;2.42;1.70;;;;;;;18.16;65.74;98272.13;4958808;28;103386;-65
2022/09/03 05:21:27;;;;;;;3.50;2.00;;;;;;;17.86;67.18;98262.94;4947039;28;103231;-65
2022/09/03 05:23:55;;;;;;;3.63;2.10;;;;;;;17.94;66.76;98263.78;4967142;28;102882;-65
2022/09/03 05:26:27;;;;;;;2.53;1.73;;;;;;;18.06;66.06;98271.44;4967661;28;104826;-65
2022/09/03 05:28:56;;;;;;;3.33;1.90;;;;;;;18.04;66.06;98268.13;4965538;28;104762;-65
2022/09/03 05:31:26;;;;;;;2.77;1.80;;;;;;;18.05;67.31;98267.13;4966131;28;103213;-65
2022/09/03 05:33:57;;;;;;;3.35;1.92;;;;;;;18.20;66.10;98273.44;4967405;28;102921;-65
2022/09/03 05:36:28;;;;;;;2.03;1.70;;;;;;;18.35;65.97;98269.09;4966710;28;102899;-66
2022/09/03 05:38:56;;;;;;;1.90;1.63;;;;;;;18.70;64.73;98273.19;4963618;28;103359;-65
2022/09/03 05:41:28;;;;;;;4.30;2.30;;;;;;;18.74;64.53;98283.41;4967334;28;103283;-65
2022/09/03 05:43:58;;;;;;;2.05;1.77;;;;;;;19.07;64.55;98268.88;4970450;28;102828;-65
2022/09/03 05:46:30;;;;;;;2.10;1.90;;;;;;;18.92;64.79;98275.97;4966833;28;102753;-65
2022/09/03 05:48:59;;;;;;;1.35;1.20;;;;;;;19.32;64.32;98271.44;4967549;28;103760;-66
2022/09/03 05:51:28;;;;;;;1.48;1.25;;;;;;;19.55;62.79;98277.69;4967420;28;103233;-66
2022/09/03 05:53:56;;;;;;;1.83;1.60;;;;;;;19.64;62.48;98276.63;4945447;28;102983;-65
2022/09/03 05:56:25;;;;;;;2.10;1.90;;;;;;;19.53;62.09;98279.72;4967786;28;103741;-65
2022/09/03 05:59:00;;;;;;;2.28;1.80;;;;;;;19.33;62.75;98283.81;4969986;28;103175;-69
2022/09/03 06:01:31;;;;;;;2.35;1.50;;;;;;;19.49;62.37;98279.22;4947763;28;103607;-65
2022/09/03 06:04:01;;;;;;;1.98;1.60;;;;;;;19.73;61.99;98280.94;4966679;28;103861;-65
2022/09/03 06:06:33;;;;;;;1.80;1.60;;;;;;;19.80;61.22;98284.53;4958374;28;103146;-65
2022/09/03 06:09:03;;;;;;;2.20;1.60;;;;;;;19.85;60.53;98284.84;4932624;28;104098;-65
2022/09/03 06:11:36;;;;;;;2.80;1.80;;;;;;;19.99;60.77;98289.41;4959162;28;102949;-65
2022/09/03 06:14:08;;;;;;;2.55;1.30;;;;;;;19.84;60.55;98283.19;4941930;28;102979;-65
2022/09/03 06:16:38;;;;;;;1.33;1.23;;;;;;;19.98;60.22;98290.44;4958666;28;103950;-65
2022/09/03 06:19:08;;;;;;;2.17;1.75;;;;;;;20.10;60.29;98282.78;4963485;28;104433;-66
2022/09/03 06:21:38;;;;;;;1.60;1.38;;;;;;;20.18;60.16;98283.56;4958489;28;103292;-65
2022/09/03 06:24:06;;;;;;;1.60;1.50;;;;;;;20.25;60.16;98286.38;4956000;28;103051;-66
2022/09/03 06:26:34;;;;;;;1.52;1.30;;;;;;;20.32;59.71;98286.50;4947529;28;103016;-64
2022/09/03 06:29:02;;;;;;;1.97;1.63;;;;;;;20.38;60.01;98286.59;4956555;28;103291;-65
2022/09/03 06:31:32;;;;;;;2.30;1.52;;;;;;;20.44;59.67;98298.44;4955022;28;103220;-64
2022/09/03 06:34:00;;;;;;;1.80;1.50;;;;;;;20.55;59.36;98292.63;4959017;28;104803;-64
2022/09/03 06:36:33;;;;;;;3.00;1.80;;;;;;;20.33;60.14;98293.50;4944386;28;103181;-64
2022/09/03 06:39:02;;;;;;;4.23;2.10;;;;;;;20.15;60.02;98286.59;4961922;28;103004;-65
2022/09/03 06:41:32;;;;;;;3.40;1.50;;;;;;;20.30;59.50;98291.19;4959273;28;103205;-65
2022/09/03 06:44:02;;;;;;;2.00;1.70;;;;;;;20.47;58.84;98290.03;4965891;28;103160;-65
2022/09/03 06:46:34;;;;;;;1.80;1.40;;;;;;;20.62;58.85;98285.53;4964094;28;103206;-65
2022/09/03 06:49:02;;;;;;;2.40;1.90;;;;;;;20.54;59.69;98291.81;4962825;28;103326;-65
2022/09/03 06:51:32;;;;;;;3.30;1.80;;;;;;;20.51;59.71;98294.03;4962058;28;103905;-65
2022/09/03 06:54:05;;;;;;;2.60;2.10;;;;;;;20.62;59.22;98296.25;4965262;28;103325;-64
2022/09/03 06:56:34;;;;;;;3.70;2.00;;;;;;;20.64;59.08;98294.22;4965449;28;103215;-64
2022/09/03 06:59:08;;;;;;;3.58;2.00;;;;;;;20.78;58.40;98288.03;4965661;28;103489;-67
2022/09/03 07:01:40;;;;;;;4.23;2.07;;;;;;;20.83;58.64;98291.81;4962069;28;103176;-66
2022/09/03 07:04:14;;;;;;;2.35;2.10;;;;;;;20.98;58.71;98289.13;4962999;28;103242;-66
2022/09/03 07:06:44;;;;;;;2.15;1.95;;;;;;;20.87;59.30;98296.81;4965194;28;104183;-67
2022/09/03 07:09:13;;;;;;;2.53;1.80;;;;;;;20.93;59.26;98296.09;4960692;28;103496;-71
2022/09/03 07:11:45;;;;;;;3.20;2.20;;;;;;;20.83;59.25;98296.34;4968208;28;103029;-70
2022/09/03 07:14:16;;;;;;;2.30;2.10;;;;;;;20.22;61.00;98292.91;4960710;28;103958;-70
2022/09/03 07:16:46;;;;;;;2.40;1.97;;;;;;;20.31;61.78;98291.03;4963824;28;103001;-70
2022/09/03 07:19:15;;;;;;;3.60;2.13;;;;;;;20.49;60.77;98288.81;4964835;28;103315;-70
2022/09/03 07:21:44;;;;;;;2.15;1.90;;;;;;;20.91;59.60;98301.66;4966178;28;103306;-67
2022/09/03 07:24:20;;;;;;;2.70;1.77;;;;;;;21.38;58.04;98295.88;4966931;28;102988;-70
2022/09/03 07:26:48;;;;;;;2.10;1.90;;;;;;;21.36;58.65;98304.13;4963655;28;102827;-70
2022/09/03 07:29:18;;;;;;;3.65;2.35;;;;;;;21.29;59.03;98300.53;4965890;28;103333;-70
2022/09/03 07:31:50;;;;;;;2.33;1.87;;;;;;;21.45;58.38;98301.31;4961310;28;103181;-66
2022/09/03 07:34:22;;;;;;;3.47;1.97;;;;;;;21.43;58.50;98306.06;4966022;28;103025;-67
2022/09/03 07:36:52;;;;;;;2.40;2.08;;;;;;;21.60;58.60;98302.13;4963559;28;102784;-67
2022/09/03 07:39:20;;;;;;;3.67;2.17;;;;;;;21.44;58.86;98305.03;4963296;28;103961;-67
2022/09/03 07:41:51;;;;;;;3.47;1.95;;;;;;;21.54;58.91;98294.81;4962142;28;103194;-67
2022/09/03 07:44:19;;;;;;;2.95;2.20;;;;;;;21.59;58.50;98303.97;4964220;28;102682;-67
2022/09/03 07:46:49;;;;;;;2.13;1.95;;;;;;;21.67;58.56;98295.78;4963469;28;104225;-67
2022/09/03 07:49:20;;;;;;;3.90;2.53;;;;;;;21.45;59.43;98304.00;4963469;28;103320;-67
2022/09/03 07:51:52;;;;;;;3.78;2.30;;;;;;;21.97;57.88;98303.78;4967836;28;103132;-67
2022/09/03 07:54:22;;;;;;;2.50;2.08;;;;;;;22.34;57.15;98307.00;4968651;28;102736;-70
2022/09/03 07:56:53;;;;;;;2.20;2.00;;;;;;;22.32;56.97;98311.75;4966051;28;102974;-71
2022/09/03 07:59:25;;;;;;;2.63;2.00;;;;;;;22.31;56.33;98315.50;4962038;28;104029;-71
2022/09/03 08:01:55;;;;;;;2.58;2.33;;;;;;;22.54;56.65;98316.06;4964228;28;103248;-71
2022/09/03 08:04:23;;;;;;;2.60;2.40;;;;;;;22.21;58.16;98320.34;4968490;28;102871;-70
2022/09/03 08:06:54;;;;;;;3.27;2.30;;;;;;;22.63;58.99;98313.22;4945792;28;104104;-71
2022/09/03 08:09:22;;;;;;;2.75;2.20;;;;;;;23.07;57.19;98311.09;4966790;28;103370;-67
2022/09/03 08:11:50;;;;;;;2.33;2.13;;;;;;;22.82;55.78;98316.09;4965443;28;103206;-67
2022/09/03 08:14:18;;;;;;;2.13;1.92;;;;;;;23.12;56.17;98319.41;4955768;28;102749;-73
2022/09/03 08:16:47;;;;;;;2.17;1.98;;;;;;;23.33;55.96;98315.75;4956770;28;102874;-74
2022/09/03 08:19:18;;;;;;;2.90;2.33;;;;;;;22.53;57.55;98322.50;4972484;28;103584;-74
2022/09/03 08:21:46;;;;;;;2.40;2.08;;;;;;;23.29;56.40;98326.13;4966905;28;103179;-73
2022/09/03 08:24:16;;;;;;;2.30;2.10;;;;;;;23.90;54.68;98320.75;4965194;28;102724;-72
2022/09/03 08:26:44;;;;;;;2.90;2.58;;;;;;;23.74;55.64;98323.84;4954601;28;104585;-74
2022/09/03 08:29:20;;;;;;;2.50;1.98;;;;;;;24.73;54.09;98321.03;4963006;28;104017;-74
2022/09/03 08:31:48;;;;;;;3.17;2.30;;;;;;;24.63;53.42;98320.63;4960054;28;102980;-73
2022/09/03 08:34:17;;;;;;;3.38;2.55;;;;;;;24.49;53.20;98316.28;4963585;28;103010;-73
2022/09/03 08:36:46;;;;;;;3.20;2.90;;;;;;;23.87;54.30;98318.47;4964069;28;102914;-73
2022/09/03 08:39:15;;;;;;;3.40;2.57;;;;;;;24.02;53.96;98319.13;4962307;28;103250;-73
2022/09/03 08:42:18;;;;;;;2.85;2.60;;;;;;;24.36;53.49;98324.38;4967497;28;103233;-73
2022/09/03 08:44:49;;;;;;;3.17;2.60;;;;;;;24.27;53.29;98330.19;4967512;28;102833;-73
2022/09/03 08:47:22;;;;;;;3.75;2.50;;;;;;;24.45;51.24;98328.53;4965799;28;102901;-73
2022/09/03 08:49:56;;;;;;;2.75;2.42;;;;;;;24.70;51.79;98323.34;4959454;28;103546;-73
2022/09/03 08:52:31;;;;;;;3.38;2.47;;;;;;;24.97;51.84;98337.66;4968133;28;103409;-74
2022/09/03 08:55:19;;;;;;;4.40;2.63;;;;;;;24.00;53.57;98332.81;4963799;28;102907;-73
2022/09/03 08:57:50;;;;;;;2.95;2.65;;;;;;;23.81;56.53;98352.47;4967662;28;102740;-74
2022/09/03 09:00:19;;;;;;;2.67;2.33;;;;;;;24.00;57.22;98356.28;4968959;28;103051;-74
2022/09/03 09:03:01;;;;;;;3.92;2.90;;;;;;;23.65;58.89;98353.69;4955727;28;102991;-74
2022/09/03 09:05:44;;;;;;;3.38;2.70;;;;;;;22.90;60.24;98366.31;4964203;28;102674;-73
2022/09/03 09:08:24;;;;;;;3.10;2.63;;;;;;;22.24;61.20;98360.31;4954005;28;103002;-73
2022/09/03 09:10:59;;;;;;;2.70;2.50;;;;;;;22.91;59.70;98354.47;4971551;28;103597;-73
2022/09/03 09:13:34;;;;;;;5.07;3.40;;;;;;;22.75;59.40;98360.16;4970899;28;104748;-73
2022/09/03 09:16:09;;;;;;;3.80;2.50;;;;;;;23.85;59.47;98363.69;4953382;28;102741;-73
2022/09/03 09:18:48;;;;;;;3.87;3.33;;;;;;;23.97;56.23;98362.88;4968944;28;104636;-73
2022/09/03 09:21:23;;;;;;;3.65;3.35;;;;;;;24.17;55.82;98360.25;4979403;28;103311;-73
2022/09/03 09:23:59;;;;;;;5.30;3.55;;;;;;;23.72;57.05;98363.66;4970799;28;103214;-73
2022/09/03 09:26:28;;;;;;;3.78;3.20;;;;;;;23.93;57.70;98361.66;4973228;28;102672;-74
2022/09/03 09:29:02;;;;;;;5.50;3.57;;;;;;;24.07;55.59;98357.13;4969927;28;102620;-74
2022/09/03 09:31:31;;;;;;;3.97;3.20;;;;;;;24.77;53.85;98345.75;4969202;28;104462;-70
2022/09/03 09:34:05;;;;;;;4.53;3.20;;;;;;;25.48;52.91;98346.72;4953436;28;103678;-75
2022/09/03 09:36:42;;;;;;;3.83;2.92;;;;;;;25.14;53.52;98355.09;4966599;28;102840;-75
2022/09/03 09:39:14;;;;;;;3.55;3.25;;;;;;;24.97;54.49;98349.31;4965368;28;104301;-75
2022/09/03 09:41:57;;;;;;;4.85;3.40;;;;;;;24.71;52.91;98357.41;4966574;28;103961;-74
2022/09/03 09:44:26;;;;;;;4.38;3.58;;;;;;;24.24;55.41;98347.63;4964166;28;103490;-75
2022/09/03 09:47:05;;;;;;;4.53;3.40;;;;;;;24.62;54.09;98340.56;4967860;28;103059;-75
2022/09/03 09:49:38;;;;;;;4.53;3.33;;;;;;;22.97;57.05;98353.69;4971885;28;102854;-72
2022/09/03 09:52:11;;;;;;;5.00;3.00;;;;;;;24.68;52.81;98347.00;4964255;28;104805;-71
2022/09/03 09:54:42;;;;;;;4.32;3.00;;;;;;;25.36;51.24;98342.97;4967314;28;105082;-71
2022/09/03 09:57:16;;;;;;;3.65;2.53;;;;;;;25.38;51.88;98338.16;4956682;28;102711;-75
2022/09/03 09:59:45;;;;;;;4.55;3.13;;;;;;;24.54;53.05;98332.69;4964004;28;102683;-75
2022/09/03 10:02:19;;;;;;;2.70;2.50;;;;;;;24.57;53.28;98347.63;4965550;28;104094;-75
2022/09/03 10:04:52;;;;;;;3.25;2.95;;;;;;;24.58;53.36;98343.91;4969246;28;103200;-75
2022/09/03 10:07:26;;;;;;;3.00;2.50;;;;;;;24.16;53.28;98339.72;4946710;28;103421;-75
2022/09/03 10:10:00;;;;;;;3.28;2.35;;;;;;;24.06;54.16;98339.25;4965623;28;103038;-75
2022/09/03 10:12:34;;;;;;;2.88;2.65;;;;;;;23.42;55.36;98352.31;4967180;28;103265;-75
2022/09/03 10:15:16;;;;;;;2.78;2.20;;;;;;;23.81;53.85;98351.63;4963488;28;103264;-74
2022/09/03 10:17:55;;;;;;;3.00;2.50;;;;;;;24.85;53.20;98350.13;4947385;28;103205;-71
2022/09/03 10:20:32;;;;;;;2.30;2.10;;;;;;;26.22;51.57;98343.41;4965371;28;102901;-73
2022/09/03 10:23:08;;;;;;;3.72;2.50;;;;;;;25.70;50.78;98345.38;4968325;28;103256;-74
2022/09/03 10:25:59;;;;;;;3.25;2.95;;;;;;;25.38;50.20;98343.56;4966772;28;103255;-74
2022/09/03 10:28:29;;;;;;;3.17;2.50;;;;;;;25.71;50.34;98338.09;4964464;28;102988;-74
2022/09/03 10:31:18;;;;;;;2.60;2.40;;;;;;;25.85;49.59;98340.47;4967394;28;104124;-70
2022/09/03 10:33:54;;;;;;;3.10;2.50;;;;;;;25.44;51.03;98334.63;4968597;28;103387;-71
2022/09/03 10:36:28;;;;;;;2.83;2.60;;;;;;;25.88;50.45;98331.13;4962685;28;103263;-70
2022/09/03 10:39:05;;;;;;;2.75;2.55;;;;;;;26.00;50.61;98323.13;4951832;28;102990;-70
2022/09/03 10:41:46;;;;;;;4.65;2.50;;;;;;;25.98;51.50;98319.81;4962868;28;104018;-70
2022/09/03 10:44:41;;;;;;;3.17;2.63;;;;;;;25.98;50.38;98330.63;4951389;28;103294;-70
2022/09/03 10:47:23;;;;;;;2.30;2.10;;;;;;;26.90;48.20;98326.22;4965456;28;103804;-70
2022/09/03 10:49:57;;;;;;;2.90;2.55;;;;;;;27.12;47.42;98328.50;4948158;28;103095;-69
2022/09/03 10:52:32;;;;;;;2.80;2.30;;;;;;;27.49;47.19;98330.19;4966124;28;102901;-70
2022/09/03 10:55:20;;;;;;;2.20;2.00;;;;;;;27.43;46.78;98325.66;4960923;28;103335;-70
2022/09/03 10:57:56;;;;;;;3.20;2.83;;;;;;;26.53;48.73;98324.44;4963584;28;102969;-70
2022/09/03 11:00:29;;;;;;;3.20;2.42;;;;;;;26.25;49.59;98321.31;4963851;28;102809;-70
2022/09/03 11:03:28;;;;;;;4.20;2.60;;;;;;;27.22;47.57;98312.53;4966981;28;103425;-74
2022/09/03 11:06:03;;;;;;;5.22;2.80;;;;;;;27.53;46.33;98309.69;4951351;28;103869;-74
2022/09/03 11:08:36;;;;;;;3.75;2.50;;;;;;;27.51;45.13;98306.34;4963648;28;103219;-74
2022/09/03 11:11:13;;;;;;;2.90;2.30;;;;;;;27.86;46.04;98310.09;4963851;28;103145;-75
2022/09/03 11:13:46;;;;;;;2.47;2.28;;;;;;;27.34;46.18;98299.91;4972204;28;103782;-75
2022/09/03 11:16:18;;;;;;;3.47;2.43;;;;;;;27.31;46.89;98301.16;4970005;28;103396;-74
2022/09/03 11:18:50;;;;;;;2.80;2.60;;;;;;;26.87;47.33;98304.97;4950843;28;103422;-75
2022/09/03 11:21:22;;;;;;;2.30;2.10;;;;;;;27.55;46.75;98292.13;4952053;28;103031;-73
2022/09/03 11:23:59;;;;;;;3.10;2.80;;;;;;;27.12;47.77;98291.38;4964994;28;106591;-69
2022/09/03 11:26:29;;;;;;;2.47;2.28;;;;;;;27.34;47.34;98299.91;4947560;28;103454;-72
2022/09/03 11:29:01;;;;;;;3.42;2.67;;;;;;;27.75;46.10;98291.03;4965362;28;103253;-74
2022/09/03 11:31:38;;;;;;;2.15;2.03;;;;;;;28.03;46.28;98289.41;4952686;28;102826;-72
2022/09/03 11:34:13;;;;;;;2.63;2.40;;;;;;;27.90;47.12;98283.31;4963739;28;103895;-72
2022/09/03 11:37:07;;;;;;;2.97;2.67;;;;;;;27.41;46.83;98284.38;4941332;28;104265;-71
2022/09/03 11:39:39;;;;;;;2.90;2.70;;;;;;;25.80;50.57;98291.59;4953020;28;103389;-71
2022/09/03 11:42:20;;;;;;;2.87;2.67;;;;;;;25.69;50.71;98289.59;4949877;28;102831;-70
2022/09/03 11:44:51;;;;;;;3.20;2.75;;;;;;;25.59;50.85;98291.13;4971540;28;102737;-70
2022/09/03 11:47:23;;;;;;;4.47;2.33;;;;;;;26.88;49.24;98279.56;4965247;28;104224;-70
2022/09/03 11:49:52;;;;;;;4.60;2.60;;;;;;;27.10;48.57;98279.09;4963119;28;103195;-70
2022/09/03 11:52:28;;;;;;;3.00;2.70;;;;;;;27.10;48.33;98285.34;4969305;28;104101;-72